sensor_id;sensor_type;location;lat;lon;timestamp;temperature;humidity
34542;DHT22;20784;51.332;12.410;2022-08-21T00:01:33;19.60;99.90
34542;DHT22;20784;51.332;12.410;2022-08-21T00:04:23;19.60;99.90
34542;DHT22;20784;51.332;12.410;2022-08-21T00:07:11;19.60;99.90
34542;DHT22;20784;51.332;12.410;2022-08-21T00:09:53;19.60;99.90
34542;DHT22;20784;51.332;12.410;2022-08-21T00:12:38;19.60;99.90
34542;DHT22;20784;51.332;12.410;2022-08-21T00:15:32;19.50;99.90
34542;DHT22;20784;51.332;12.410;2022-08-21T00:18:37;19.60;99.90
34542;DHT22;20784;51.332;12.410;2022-08-21T00:21:22;19.60;99.90
34542;DHT22;20784;51.332;12.410;2022-08-21T00:23:56;19.60;99.90
34542;DHT22;20784;51.332;12.410;2022-08-21T00:26:41;19.60;99.90
34542;DHT22;20784;51.332;12.410;2022-08-21T00:29:48;19.50;99.90
34542;DHT22;20784;51.332;12.410;2022-08-21T00:32:38;19.60;99.90
34542;DHT22;20784;51.332;12.410;2022-08-21T00:39:12;19.60;99.90
34542;DHT22;20784;51.332;12.410;2022-08-21T00:42:21;19.60;99.90
34542;DHT22;20784;51.332;12.410;2022-08-21T00:45:07;19.60;99.90
34542;DHT22;20784;51.332;12.410;2022-08-21T00:47:56;19.60;99.90
34542;DHT22;20784;51.332;12.410;2022-08-21T00:50:40;19.50;99.90
34542;DHT22;20784;51.332;12.410;2022-08-21T00:53:35;19.60;99.90
34542;DHT22;20784;51.332;12.410;2022-08-21T00:59:05;19.60;99.90
34542;DHT22;20784;51.332;12.410;2022-08-21T01:04:11;19.50;99.90
34542;DHT22;20784;51.332;12.410;2022-08-21T01:06:53;19.50;99.90
34542;DHT22;20784;51.332;12.410;2022-08-21T01:09:30;19.50;99.90
34542;DHT22;20784;51.332;12.410;2022-08-21T01:12:39;19.40;99.90
34542;DHT22;20784;51.332;12.410;2022-08-21T01:16:08;19.40;99.90
34542;DHT22;20784;51.332;12.410;2022-08-21T01:18:20;19.50;99.90
34542;DHT22;20784;51.332;12.410;2022-08-21T01:27:00;19.50;99.90
34542;DHT22;20784;51.332;12.410;2022-08-21T01:29:51;19.50;99.90
34542;DHT22;20784;51.332;12.410;2022-08-21T01:33:13;19.40;99.90
34542;DHT22;20784;51.332;12.410;2022-08-21T01:35:54;19.50;99.90
34542;DHT22;20784;51.332;12.410;2022-08-21T01:38:36;19.50;99.90
34542;DHT22;20784;51.332;12.410;2022-08-21T01:41:37;19.40;99.90
34542;DHT22;20784;51.332;12.410;2022-08-21T01:45:02;19.40;99.90
34542;DHT22;20784;51.332;12.410;2022-08-21T01:47:56;19.50;99.90
34542;DHT22;20784;51.332;12.410;2022-08-21T01:50:36;19.40;99.90
34542;DHT22;20784;51.332;12.410;2022-08-21T01:53:12;19.40;99.90
34542;DHT22;20784;51.332;12.410;2022-08-21T01:55:58;19.40;99.90
34542;DHT22;20784;51.332;12.410;2022-08-21T01:58:26;19.30;99.90
34542;DHT22;20784;51.332;12.410;2022-08-21T02:04:23;19.30;99.90
34542;DHT22;20784;51.332;12.410;2022-08-21T02:07:10;19.40;99.90
34542;DHT22;20784;51.332;12.410;2022-08-21T02:09:44;19.20;99.90
34542;DHT22;20784;51.332;12.410;2022-08-21T02:12:17;19.20;99.90
34542;DHT22;20784;51.332;12.410;2022-08-21T02:14:59;19.30;99.90
34542;DHT22;20784;51.332;12.410;2022-08-21T02:18:25;19.30;99.90
34542;DHT22;20784;51.332;12.410;2022-08-21T02:21:14;19.30;99.90
34542;DHT22;20784;51.332;12.410;2022-08-21T02:24:04;19.30;99.90
34542;DHT22;20784;51.332;12.410;2022-08-21T02:26:41;19.30;99.90
34542;DHT22;20784;51.332;12.410;2022-08-21T02:29:12;19.20;99.90
34542;DHT22;20784;51.332;12.410;2022-08-21T02:32:05;19.20;99.90
34542;DHT22;20784;51.332;12.410;2022-08-21T02:34:57;19.10;99.90
34542;DHT22;20784;51.332;12.410;2022-08-21T02:38:29;19.00;99.90
34542;DHT22;20784;51.332;12.410;2022-08-21T02:43:54;19.00;99.90
34542;DHT22;20784;51.332;12.410;2022-08-21T02:46:48;19.00;99.90
34542;DHT22;20784;51.332;12.410;2022-08-21T02:49:30;19.10;99.90
34542;DHT22;20784;51.332;12.410;2022-08-21T02:54:48;19.20;99.90
34542;DHT22;20784;51.332;12.410;2022-08-21T02:57:39;19.10;99.90
34542;DHT22;20784;51.332;12.410;2022-08-21T03:03:16;19.00;99.90
34542;DHT22;20784;51.332;12.410;2022-08-21T03:06:04;19.00;99.90
34542;DHT22;20784;51.332;12.410;2022-08-21T03:08:53;18.90;99.90
34542;DHT22;20784;51.332;12.410;2022-08-21T03:11:42;19.00;99.90
34542;DHT22;20784;51.332;12.410;2022-08-21T03:14:32;18.90;99.90
34542;DHT22;20784;51.332;12.410;2022-08-21T03:17:50;18.90;99.90
34542;DHT22;20784;51.332;12.410;2022-08-21T03:20:55;18.90;99.90
34542;DHT22;20784;51.332;12.410;2022-08-21T03:23:23;18.90;99.90
34542;DHT22;20784;51.332;12.410;2022-08-21T03:26:04;18.90;99.90
34542;DHT22;20784;51.332;12.410;2022-08-21T03:29:06;18.80;99.90
34542;DHT22;20784;51.332;12.410;2022-08-21T03:32:03;18.70;99.90
34542;DHT22;20784;51.332;12.410;2022-08-21T03:35:18;18.80;99.90
34542;DHT22;20784;51.332;12.410;2022-08-21T03:38:27;18.70;99.90
34542;DHT22;20784;51.332;12.410;2022-08-21T03:41:55;18.60;99.90
34542;DHT22;20784;51.332;12.410;2022-08-21T03:47:21;18.60;99.90
34542;DHT22;20784;51.332;12.410;2022-08-21T03:50:31;18.60;99.90
34542;DHT22;20784;51.332;12.410;2022-08-21T03:53:26;18.60;99.90
34542;DHT22;20784;51.332;12.410;2022-08-21T03:56:01;18.70;99.90
34542;DHT22;20784;51.332;12.410;2022-08-21T03:58:54;18.70;99.90
34542;DHT22;20784;51.332;12.410;2022-08-21T04:01:27;18.70;99.90
34542;DHT22;20784;51.332;12.410;2022-08-21T04:04:37;18.70;99.90
34542;DHT22;20784;51.332;12.410;2022-08-21T04:07:35;18.70;99.90
34542;DHT22;20784;51.332;12.410;2022-08-21T04:10:33;18.70;99.90
34542;DHT22;20784;51.332;12.410;2022-08-21T04:13:14;18.60;99.90
34542;DHT22;20784;51.332;12.410;2022-08-21T04:15:48;18.60;99.90
34542;DHT22;20784;51.332;12.410;2022-08-21T04:18:37;18.60;99.90
34542;DHT22;20784;51.332;12.410;2022-08-21T04:21:03;18.60;99.90
34542;DHT22;20784;51.332;12.410;2022-08-21T04:23:39;18.60;99.90
34542;DHT22;20784;51.332;12.410;2022-08-21T04:26:14;18.60;99.90
34542;DHT22;20784;51.332;12.410;2022-08-21T04:29:03;18.60;99.90
34542;DHT22;20784;51.332;12.410;2022-08-21T04:31:34;18.50;99.90
34542;DHT22;20784;51.332;12.410;2022-08-21T04:37:07;18.50;99.90
34542;DHT22;20784;51.332;12.410;2022-08-21T04:46:16;18.70;99.90
34542;DHT22;20784;51.332;12.410;2022-08-21T04:58:22;18.60;99.90
34542;DHT22;20784;51.332;12.410;2022-08-21T05:01:13;18.60;99.90
34542;DHT22;20784;51.332;12.410;2022-08-21T05:03:56;18.60;99.90
34542;DHT22;20784;51.332;12.410;2022-08-21T05:06:33;18.60;99.90
34542;DHT22;20784;51.332;12.410;2022-08-21T05:09:06;18.60;99.90
34542;DHT22;20784;51.332;12.410;2022-08-21T05:11:37;18.70;99.90
34542;DHT22;20784;51.332;12.410;2022-08-21T05:14:11;18.60;99.90
34542;DHT22;20784;51.332;12.410;2022-08-21T05:16:40;18.60;99.90
34542;DHT22;20784;51.332;12.410;2022-08-21T05:19:15;18.70;99.90
34542;DHT22;20784;51.332;12.410;2022-08-21T05:22:02;18.70;99.90
34542;DHT22;20784;51.332;12.410;2022-08-21T05:25:02;18.70;99.90
34542;DHT22;20784;51.332;12.410;2022-08-21T05:27:45;18.80;99.90
34542;DHT22;20784;51.332;12.410;2022-08-21T05:30:17;18.80;99.90
34542;DHT22;20784;51.332;12.410;2022-08-21T05:32:43;18.80;99.90
34542;DHT22;20784;51.332;12.410;2022-08-21T05:35:08;18.90;99.90
34542;DHT22;20784;51.332;12.410;2022-08-21T05:37:37;18.90;99.90
34542;DHT22;20784;51.332;12.410;2022-08-21T05:40:06;18.90;99.90
34542;DHT22;20784;51.332;12.410;2022-08-21T05:42:35;18.90;99.90
34542;DHT22;20784;51.332;12.410;2022-08-21T05:45:01;18.90;99.90
34542;DHT22;20784;51.332;12.410;2022-08-21T05:47:32;19.00;99.90
34542;DHT22;20784;51.332;12.410;2022-08-21T05:52:55;18.90;99.90
34542;DHT22;20784;51.332;12.410;2022-08-21T05:55:23;19.00;99.90
34542;DHT22;20784;51.332;12.410;2022-08-21T05:57:57;19.10;99.90
34542;DHT22;20784;51.332;12.410;2022-08-21T06:03:54;19.10;99.90
34542;DHT22;20784;51.332;12.410;2022-08-21T06:06:33;19.30;99.90
34542;DHT22;20784;51.332;12.410;2022-08-21T06:09:28;19.30;99.90
34542;DHT22;20784;51.332;12.410;2022-08-21T06:12:22;19.30;99.90
34542;DHT22;20784;51.332;12.410;2022-08-21T06:14:48;19.40;99.90
34542;DHT22;20784;51.332;12.410;2022-08-21T06:21:38;19.70;99.90
34542;DHT22;20784;51.332;12.410;2022-08-21T06:24:14;19.70;99.90
34542;DHT22;20784;51.332;12.410;2022-08-21T06:27:41;19.90;99.90
34542;DHT22;20784;51.332;12.410;2022-08-21T06:30:15;19.90;99.90
34542;DHT22;20784;51.332;12.410;2022-08-21T06:33:07;20.10;99.90
34542;DHT22;20784;51.332;12.410;2022-08-21T06:35:42;20.20;99.90
34542;DHT22;20784;51.332;12.410;2022-08-21T06:38:41;20.20;99.90
34542;DHT22;20784;51.332;12.410;2022-08-21T06:41:10;20.10;99.90
34542;DHT22;20784;51.332;12.410;2022-08-21T06:44:03;20.10;99.90
34542;DHT22;20784;51.332;12.410;2022-08-21T06:46:36;20.10;99.90
34542;DHT22;20784;51.332;12.410;2022-08-21T06:49:04;20.10;99.90
34542;DHT22;20784;51.332;12.410;2022-08-21T06:55:08;20.20;99.90
34542;DHT22;20784;51.332;12.410;2022-08-21T06:57:53;20.30;99.90
34542;DHT22;20784;51.332;12.410;2022-08-21T07:09:46;20.30;99.90
34542;DHT22;20784;51.332;12.410;2022-08-21T07:12:24;20.30;99.90
34542;DHT22;20784;51.332;12.410;2022-08-21T07:15:21;20.20;99.90
34542;DHT22;20784;51.332;12.410;2022-08-21T07:17:47;20.30;99.90
34542;DHT22;20784;51.332;12.410;2022-08-21T07:20:18;20.40;99.90
34542;DHT22;20784;51.332;12.410;2022-08-21T07:22:44;20.50;99.90
34542;DHT22;20784;51.332;12.410;2022-08-21T07:25:10;20.80;99.90
34542;DHT22;20784;51.332;12.410;2022-08-21T07:27:42;20.90;99.90
34542;DHT22;20784;51.332;12.410;2022-08-21T07:30:09;21.10;99.90
34542;DHT22;20784;51.332;12.410;2022-08-21T07:32:40;21.30;99.90
34542;DHT22;20784;51.332;12.410;2022-08-21T07:35:11;21.30;99.90
34542;DHT22;20784;51.332;12.410;2022-08-21T07:37:37;21.40;99.90
34542;DHT22;20784;51.332;12.410;2022-08-21T07:40:03;21.50;99.90
34542;DHT22;20784;51.332;12.410;2022-08-21T07:42:29;21.50;99.90
34542;DHT22;20784;51.332;12.410;2022-08-21T07:44:57;21.50;99.90
34542;DHT22;20784;51.332;12.410;2022-08-21T07:47:35;21.30;99.90
34542;DHT22;20784;51.332;12.410;2022-08-21T07:50:10;21.20;99.90
34542;DHT22;20784;51.332;12.410;2022-08-21T07:52:42;21.40;99.90
34542;DHT22;20784;51.332;12.410;2022-08-21T07:55:13;21.40;99.90
34542;DHT22;20784;51.332;12.410;2022-08-21T07:58:00;21.40;99.90
34542;DHT22;20784;51.332;12.410;2022-08-21T08:00:51;21.40;99.90
34542;DHT22;20784;51.332;12.410;2022-08-21T08:03:24;21.50;99.90
34542;DHT22;20784;51.332;12.410;2022-08-21T08:05:53;21.60;99.90
34542;DHT22;20784;51.332;12.410;2022-08-21T08:08:26;21.80;99.90
34542;DHT22;20784;51.332;12.410;2022-08-21T08:11:05;21.90;99.90
34542;DHT22;20784;51.332;12.410;2022-08-21T08:13:41;22.10;99.90
34542;DHT22;20784;51.332;12.410;2022-08-21T08:16:10;22.10;99.90
34542;DHT22;20784;51.332;12.410;2022-08-21T08:18:44;22.20;99.90
34542;DHT22;20784;51.332;12.410;2022-08-21T08:21:13;22.30;99.90
34542;DHT22;20784;51.332;12.410;2022-08-21T08:23:49;22.40;99.90
34542;DHT22;20784;51.332;12.410;2022-08-21T08:26:37;22.30;99.90
34542;DHT22;20784;51.332;12.410;2022-08-21T08:29:28;22.50;99.90
34542;DHT22;20784;51.332;12.410;2022-08-21T08:35:11;22.50;99.90
34542;DHT22;20784;51.332;12.410;2022-08-21T08:38:24;22.60;99.90
34542;DHT22;20784;51.332;12.410;2022-08-21T08:41:29;22.60;99.90
34542;DHT22;20784;51.332;12.410;2022-08-21T08:44:40;22.90;99.90
34542;DHT22;20784;51.332;12.410;2022-08-21T08:47:42;23.20;99.90
34542;DHT22;20784;51.332;12.410;2022-08-21T08:56:45;23.80;99.90
34542;DHT22;20784;51.332;12.410;2022-08-21T08:59:40;24.20;99.90
34542;DHT22;20784;51.332;12.410;2022-08-21T09:02:09;24.20;99.90
34542;DHT22;20784;51.332;12.410;2022-08-21T09:04:42;24.30;99.90
34542;DHT22;20784;51.332;12.410;2022-08-21T09:07:22;24.40;99.90
34542;DHT22;20784;51.332;12.410;2022-08-21T09:12:56;24.80;99.90
34542;DHT22;20784;51.332;12.410;2022-08-21T09:27:13;25.20;99.90
34542;DHT22;20784;51.332;12.410;2022-08-21T09:30:01;25.20;99.90
34542;DHT22;20784;51.332;12.410;2022-08-21T09:32:31;25.40;99.90
34542;DHT22;20784;51.332;12.410;2022-08-21T09:37:50;25.80;99.90
34542;DHT22;20784;51.332;12.410;2022-08-21T09:40:35;26.10;99.90
34542;DHT22;20784;51.332;12.410;2022-08-21T09:43:52;26.10;99.90
34542;DHT22;20784;51.332;12.410;2022-08-21T09:46:23;26.10;99.90
34542;DHT22;20784;51.332;12.410;2022-08-21T09:48:56;26.00;99.90
34542;DHT22;20784;51.332;12.410;2022-08-21T09:51:26;26.10;99.90
34542;DHT22;20784;51.332;12.410;2022-08-21T09:56:37;26.60;99.90
34542;DHT22;20784;51.332;12.410;2022-08-21T09:59:31;26.70;99.90
34542;DHT22;20784;51.332;12.410;2022-08-21T10:02:30;26.60;99.90
34542;DHT22;20784;51.332;12.410;2022-08-21T10:05:06;26.50;99.90
34542;DHT22;20784;51.332;12.410;2022-08-21T10:07:36;26.40;99.90
34542;DHT22;20784;51.332;12.410;2022-08-21T10:10:05;26.30;99.90
34542;DHT22;20784;51.332;12.410;2022-08-21T10:12:42;26.70;99.90
34542;DHT22;20784;51.332;12.410;2022-08-21T10:15:24;27.00;99.90
34542;DHT22;20784;51.332;12.410;2022-08-21T10:18:13;26.80;99.90
34542;DHT22;20784;51.332;12.410;2022-08-21T10:24:06;26.70;99.90
34542;DHT22;20784;51.332;12.410;2022-08-21T10:29:37;26.70;99.90
34542;DHT22;20784;51.332;12.410;2022-08-21T10:35:23;26.70;99.90
34542;DHT22;20784;51.332;12.410;2022-08-21T10:41:08;26.90;99.90
34542;DHT22;20784;51.332;12.410;2022-08-21T11:00:09;28.40;99.90
34542;DHT22;20784;51.332;12.410;2022-08-21T11:05:59;28.40;99.90
34542;DHT22;20784;51.332;12.410;2022-08-21T11:08:49;28.60;99.90
34542;DHT22;20784;51.332;12.410;2022-08-21T11:20:35;29.10;99.90
34542;DHT22;20784;51.332;12.410;2022-08-21T11:23:31;29.30;99.90
34542;DHT22;20784;51.332;12.410;2022-08-21T11:29:37;30.10;99.90
34542;DHT22;20784;51.332;12.410;2022-08-21T11:32:30;30.10;99.90
34542;DHT22;20784;51.332;12.410;2022-08-21T11:43:54;30.10;99.90
34542;DHT22;20784;51.332;12.410;2022-08-21T11:46:59;30.10;99.90
34542;DHT22;20784;51.332;12.410;2022-08-21T11:55:44;30.40;99.90
34542;DHT22;20784;51.332;12.410;2022-08-21T11:58:45;30.20;99.90
34542;DHT22;20784;51.332;12.410;2022-08-21T12:01:26;29.80;99.50
34542;DHT22;20784;51.332;12.410;2022-08-21T12:04:29;29.20;99.90
34542;DHT22;20784;51.332;12.410;2022-08-21T12:07:28;28.80;99.90
34542;DHT22;20784;51.332;12.410;2022-08-21T12:09:56;28.70;99.90
34542;DHT22;20784;51.332;12.410;2022-08-21T12:12:54;28.60;99.90
34542;DHT22;20784;51.332;12.410;2022-08-21T12:15:39;28.50;99.90
34542;DHT22;20784;51.332;12.410;2022-08-21T12:18:28;28.30;99.90
34542;DHT22;20784;51.332;12.410;2022-08-21T12:21:19;28.20;99.90
34542;DHT22;20784;51.332;12.410;2022-08-21T12:26:54;28.00;99.90
34542;DHT22;20784;51.332;12.410;2022-08-21T12:29:29;28.00;99.90
34542;DHT22;20784;51.332;12.410;2022-08-21T12:38:02;28.40;99.90
34542;DHT22;20784;51.332;12.410;2022-08-21T12:41:04;28.40;99.90
34542;DHT22;20784;51.332;12.410;2022-08-21T12:43:41;28.20;99.90
34542;DHT22;20784;51.332;12.410;2022-08-21T12:47:17;28.60;99.90
34542;DHT22;20784;51.332;12.410;2022-08-21T12:53:06;29.30;99.90
34542;DHT22;20784;51.332;12.410;2022-08-21T12:55:43;28.90;99.90
34542;DHT22;20784;51.332;12.410;2022-08-21T12:58:22;28.70;99.90
34542;DHT22;20784;51.332;12.410;2022-08-21T13:01:07;28.40;99.90
34542;DHT22;20784;51.332;12.410;2022-08-21T13:04:09;27.80;99.90
34542;DHT22;20784;51.332;12.410;2022-08-21T13:06:43;27.20;99.90
34542;DHT22;20784;51.332;12.410;2022-08-21T13:09:18;27.00;99.90
34542;DHT22;20784;51.332;12.410;2022-08-21T13:11:48;26.90;99.90
34542;DHT22;20784;51.332;12.410;2022-08-21T13:14:39;26.80;99.90
34542;DHT22;20784;51.332;12.410;2022-08-21T13:17:10;27.10;99.90
34542;DHT22;20784;51.332;12.410;2022-08-21T13:20:03;27.10;99.90
34542;DHT22;20784;51.332;12.410;2022-08-21T13:22:29;27.40;99.90
34542;DHT22;20784;51.332;12.410;2022-08-21T13:25:03;27.90;99.90
34542;DHT22;20784;51.332;12.410;2022-08-21T13:27:37;28.10;99.90
34542;DHT22;20784;51.332;12.410;2022-08-21T13:30:23;28.30;99.90
34542;DHT22;20784;51.332;12.410;2022-08-21T13:32:56;28.50;99.90
34542;DHT22;20784;51.332;12.410;2022-08-21T13:35:35;28.30;99.90
34542;DHT22;20784;51.332;12.410;2022-08-21T13:38:05;27.80;99.90
34542;DHT22;20784;51.332;12.410;2022-08-21T13:43:43;27.20;99.90
34542;DHT22;20784;51.332;12.410;2022-08-21T13:46:15;26.60;99.90
34542;DHT22;20784;51.332;12.410;2022-08-21T13:48:46;26.30;99.90
34542;DHT22;20784;51.332;12.410;2022-08-21T13:51:14;26.40;99.90
34542;DHT22;20784;51.332;12.410;2022-08-21T13:53:45;26.30;99.90
34542;DHT22;20784;51.332;12.410;2022-08-21T13:59:03;26.70;99.90
34542;DHT22;20784;51.332;12.410;2022-08-21T14:04:39;27.30;99.90
34542;DHT22;20784;51.332;12.410;2022-08-21T14:07:33;27.50;99.90
34542;DHT22;20784;51.332;12.410;2022-08-21T14:10:20;27.80;99.90
34542;DHT22;20784;51.332;12.410;2022-08-21T14:13:01;27.80;99.90
34542;DHT22;20784;51.332;12.410;2022-08-21T14:15:57;27.80;99.90
34542;DHT22;20784;51.332;12.410;2022-08-21T14:18:29;27.60;99.90
34542;DHT22;20784;51.332;12.410;2022-08-21T14:21:09;27.50;99.90
34542;DHT22;20784;51.332;12.410;2022-08-21T14:23:59;27.40;99.90
34542;DHT22;20784;51.332;12.410;2022-08-21T14:26:41;27.40;99.90
34542;DHT22;20784;51.332;12.410;2022-08-21T14:29:17;27.50;99.90
34542;DHT22;20784;51.332;12.410;2022-08-21T14:31:52;27.60;99.90
34542;DHT22;20784;51.332;12.410;2022-08-21T14:34:26;27.70;99.90
34542;DHT22;20784;51.332;12.410;2022-08-21T14:36:55;27.70;99.90
34542;DHT22;20784;51.332;12.410;2022-08-21T14:39:35;27.80;99.90
34542;DHT22;20784;51.332;12.410;2022-08-21T14:42:14;28.00;99.90
34542;DHT22;20784;51.332;12.410;2022-08-21T14:44:43;27.90;99.90
34542;DHT22;20784;51.332;12.410;2022-08-21T14:47:09;27.80;99.90
34542;DHT22;20784;51.332;12.410;2022-08-21T14:49:37;27.90;99.90
34542;DHT22;20784;51.332;12.410;2022-08-21T14:52:03;27.90;99.90
34542;DHT22;20784;51.332;12.410;2022-08-21T14:54:32;27.90;99.90
34542;DHT22;20784;51.332;12.410;2022-08-21T14:57:02;27.90;99.90
34542;DHT22;20784;51.332;12.410;2022-08-21T14:59:29;27.90;99.90
34542;DHT22;20784;51.332;12.410;2022-08-21T15:01:58;28.00;99.90
34542;DHT22;20784;51.332;12.410;2022-08-21T15:04:32;28.00;99.90
34542;DHT22;20784;51.332;12.410;2022-08-21T15:07:01;28.00;99.90
34542;DHT22;20784;51.332;12.410;2022-08-21T15:09:33;27.90;99.90
34542;DHT22;20784;51.332;12.410;2022-08-21T15:12:01;27.90;99.90
34542;DHT22;20784;51.332;12.410;2022-08-21T15:14:29;27.80;99.90
34542;DHT22;20784;51.332;12.410;2022-08-21T15:16:56;27.80;99.90
34542;DHT22;20784;51.332;12.410;2022-08-21T15:19:22;27.70;99.90
34542;DHT22;20784;51.332;12.410;2022-08-21T15:21:48;27.50;99.90
34542;DHT22;20784;51.332;12.410;2022-08-21T15:24:16;27.50;99.90
34542;DHT22;20784;51.332;12.410;2022-08-21T15:26:47;27.40;99.90
34542;DHT22;20784;51.332;12.410;2022-08-21T15:29:13;27.40;99.90
34542;DHT22;20784;51.332;12.410;2022-08-21T15:31:59;27.40;99.90
34542;DHT22;20784;51.332;12.410;2022-08-21T15:34:34;27.30;99.90
34542;DHT22;20784;51.332;12.410;2022-08-21T15:37:00;27.20;99.90
34542;DHT22;20784;51.332;12.410;2022-08-21T15:39:26;27.30;99.90
34542;DHT22;20784;51.332;12.410;2022-08-21T15:41:52;27.30;99.90
34542;DHT22;20784;51.332;12.410;2022-08-21T15:44:49;27.20;99.90
34542;DHT22;20784;51.332;12.410;2022-08-21T15:50:43;27.20;99.90
34542;DHT22;20784;51.332;12.410;2022-08-21T15:56:22;27.00;99.90
34542;DHT22;20784;51.332;12.410;2022-08-21T15:58:59;27.00;99.90
34542;DHT22;20784;51.332;12.410;2022-08-21T16:01:25;26.90;99.90
34542;DHT22;20784;51.332;12.410;2022-08-21T16:04:02;26.80;99.90
34542;DHT22;20784;51.332;12.410;2022-08-21T16:06:38;26.80;99.90
34542;DHT22;20784;51.332;12.410;2022-08-21T16:09:07;26.80;99.90
34542;DHT22;20784;51.332;12.410;2022-08-21T16:15:01;26.70;99.90
34542;DHT22;20784;51.332;12.410;2022-08-21T16:18:16;26.70;99.90
34542;DHT22;20784;51.332;12.410;2022-08-21T16:24:28;26.60;99.90
34542;DHT22;20784;51.332;12.410;2022-08-21T16:31:06;26.60;99.90
34542;DHT22;20784;51.332;12.410;2022-08-21T16:36:35;26.50;99.90
34542;DHT22;20784;51.332;12.410;2022-08-21T16:43:23;26.40;99.90
34542;DHT22;20784;51.332;12.410;2022-08-21T16:46:19;26.10;99.90
34542;DHT22;20784;51.332;12.410;2022-08-21T16:49:26;26.00;99.90
34542;DHT22;20784;51.332;12.410;2022-08-21T16:51:57;25.90;99.90
34542;DHT22;20784;51.332;12.410;2022-08-21T16:54:26;25.90;99.90
34542;DHT22;20784;51.332;12.410;2022-08-21T16:57:18;25.90;99.90
34542;DHT22;20784;51.332;12.410;2022-08-21T16:59:47;25.80;99.90
34542;DHT22;20784;51.332;12.410;2022-08-21T17:02:26;25.80;99.90
34542;DHT22;20784;51.332;12.410;2022-08-21T17:04:55;25.80;99.90
34542;DHT22;20784;51.332;12.410;2022-08-21T17:07:28;25.70;99.90
34542;DHT22;20784;51.332;12.410;2022-08-21T17:10:00;25.60;99.90
34542;DHT22;20784;51.332;12.410;2022-08-21T17:12:38;25.50;99.90
34542;DHT22;20784;51.332;12.410;2022-08-21T17:15:16;25.50;99.90
34542;DHT22;20784;51.332;12.410;2022-08-21T17:17:46;25.40;99.90
34542;DHT22;20784;51.332;12.410;2022-08-21T17:20:18;25.30;99.90
34542;DHT22;20784;51.332;12.410;2022-08-21T17:22:47;25.30;99.90
34542;DHT22;20784;51.332;12.410;2022-08-21T17:25:18;25.30;99.90
34542;DHT22;20784;51.332;12.410;2022-08-21T17:28:01;25.20;99.90
34542;DHT22;20784;51.332;12.410;2022-08-21T17:30:33;25.10;99.90
34542;DHT22;20784;51.332;12.410;2022-08-21T17:33:17;25.00;99.90
34542;DHT22;20784;51.332;12.410;2022-08-21T17:36:13;25.00;99.90
34542;DHT22;20784;51.332;12.410;2022-08-21T17:42:12;24.80;99.90
34542;DHT22;20784;51.332;12.410;2022-08-21T17:48:27;24.60;99.90
34542;DHT22;20784;51.332;12.410;2022-08-21T17:51:03;24.50;99.90
34542;DHT22;20784;51.332;12.410;2022-08-21T17:53:34;24.40;99.90
34542;DHT22;20784;51.332;12.410;2022-08-21T17:59:25;24.10;99.90
34542;DHT22;20784;51.332;12.410;2022-08-21T18:05:53;24.10;99.90
34542;DHT22;20784;51.332;12.410;2022-08-21T18:08:22;23.90;99.90
34542;DHT22;20784;51.332;12.410;2022-08-21T18:11:21;23.80;99.90
34542;DHT22;20784;51.332;12.410;2022-08-21T18:14:24;23.70;99.90
34542;DHT22;20784;51.332;12.410;2022-08-21T18:17:13;23.60;99.90
34542;DHT22;20784;51.332;12.410;2022-08-21T18:19:45;23.50;99.90
34542;DHT22;20784;51.332;12.410;2022-08-21T18:22:13;23.50;99.90
34542;DHT22;20784;51.332;12.410;2022-08-21T18:25:05;23.50;99.90
34542;DHT22;20784;51.332;12.410;2022-08-21T18:27:51;23.40;99.90
34542;DHT22;20784;51.332;12.410;2022-08-21T18:30:26;23.30;99.90
34542;DHT22;20784;51.332;12.410;2022-08-21T18:33:04;23.20;99.90
34542;DHT22;20784;51.332;12.410;2022-08-21T18:35:43;23.10;99.90
34542;DHT22;20784;51.332;12.410;2022-08-21T18:38:11;23.00;99.90
34542;DHT22;20784;51.332;12.410;2022-08-21T18:40:45;22.90;99.90
34542;DHT22;20784;51.332;12.410;2022-08-21T18:43:19;22.80;99.90
34542;DHT22;20784;51.332;12.410;2022-08-21T18:45:59;22.70;99.90
34542;DHT22;20784;51.332;12.410;2022-08-21T18:48:58;22.60;99.90
34542;DHT22;20784;51.332;12.410;2022-08-21T18:51:24;22.60;99.90
34542;DHT22;20784;51.332;12.410;2022-08-21T18:57:00;22.40;99.90
34542;DHT22;20784;51.332;12.410;2022-08-21T19:02:31;22.30;99.90
34542;DHT22;20784;51.332;12.410;2022-08-21T19:11:55;22.20;99.90
34542;DHT22;20784;51.332;12.410;2022-08-21T19:37:11;21.70;99.90
34542;DHT22;20784;51.332;12.410;2022-08-21T19:39:32;21.70;99.90
34542;DHT22;20784;51.332;12.410;2022-08-21T19:45:12;21.60;99.90
34542;DHT22;20784;51.332;12.410;2022-08-21T19:48:02;21.60;99.90
34542;DHT22;20784;51.332;12.410;2022-08-21T19:51:08;21.50;99.90
34542;DHT22;20784;51.332;12.410;2022-08-21T19:54:26;21.40;99.90
34542;DHT22;20784;51.332;12.410;2022-08-21T19:57:00;21.50;99.90
34542;DHT22;20784;51.332;12.410;2022-08-21T19:59:44;21.40;99.90
34542;DHT22;20784;51.332;12.410;2022-08-21T20:02:50;21.40;99.90
34542;DHT22;20784;51.332;12.410;2022-08-21T20:08:48;21.30;99.90
34542;DHT22;20784;51.332;12.410;2022-08-21T21:01:04;20.50;99.90
34542;DHT22;20784;51.332;12.410;2022-08-21T21:18:13;20.20;99.90
34542;DHT22;20784;51.332;12.410;2022-08-21T21:21:33;20.30;99.90
34542;DHT22;20784;51.332;12.410;2022-08-21T21:34:24;20.00;99.90
34542;DHT22;20784;51.332;12.410;2022-08-21T21:44:46;20.00;99.90
34542;DHT22;20784;51.332;12.410;2022-08-21T22:00:08;19.70;99.90
34542;DHT22;20784;51.332;12.410;2022-08-21T22:09:41;19.70;99.90
34542;DHT22;20784;51.332;12.410;2022-08-21T22:15:42;19.60;99.90
34542;DHT22;20784;51.332;12.410;2022-08-21T22:18:50;19.50;99.90
34542;DHT22;20784;51.332;12.410;2022-08-21T22:21:51;19.50;99.90
34542;DHT22;20784;51.332;12.410;2022-08-21T22:27:41;19.50;99.90
34542;DHT22;20784;51.332;12.410;2022-08-21T22:30:50;19.40;99.90
34542;DHT22;20784;51.332;12.410;2022-08-21T22:33:32;19.20;99.90
34542;DHT22;20784;51.332;12.410;2022-08-21T22:39:37;19.10;99.90
34542;DHT22;20784;51.332;12.410;2022-08-21T22:42:24;19.10;99.90
34542;DHT22;20784;51.332;12.410;2022-08-21T22:45:00;19.00;99.90
34542;DHT22;20784;51.332;12.410;2022-08-21T22:47:41;19.00;99.90
34542;DHT22;20784;51.332;12.410;2022-08-21T22:53:20;18.80;99.90
34542;DHT22;20784;51.332;12.410;2022-08-21T22:56:06;18.90;99.90
34542;DHT22;20784;51.332;12.410;2022-08-21T23:05:39;18.70;99.90
34542;DHT22;20784;51.332;12.410;2022-08-21T23:08:57;18.70;99.90